KPSC/PSC METAR and TAF weather

Enter ICAO airport designator
Station Type Date Time Source
KPSC METAR 2019/08/24 08:53 UTC NOAA

KPSC 240853Z AUTO 00000KT 10SM CLR 23/12 A2978 RMK AO2 SLP080 T02280122 51006


Station Type Date Time Source
KPSC Decoded METAR 2019/08/24 08:53 UTC NOAA

Station name not available
Aug 24, 2019 - 04:53 AM EDT / 2019.08.24 0853 UTC
Wind: Calm:0
Visibility: 10 mile(s):0
Sky conditions: clear
Temperature: 73.0 F (22.8 C)
Dew Point: 54.0 F (12.2 C)
Relative Humidity: 51%
Pressure (altimeter): 29.78 in. Hg (1008 hPa)
Pressure tendency: 0.02 inches (0.6 hPa) higher than three hours ago
ob: KPSC 240853Z AUTO 00000KT 10SM CLR 23/12 A2978 RMK AO2 SLP080 T02280122 51006
cycle: 9

Station Type Date Time Source
KPSC TAF 2019/08/24 06:28 UTC NOAA

TAF KPSC 240525Z 2406/2506 VRB06KT P6SM BKN200
FM241700 25015G25KT P6SM BKN200
FM250400 22010KT P6SM SCT250

Example: see airport list